createdAt,value
2018-07-15T00:00:51.720Z,15.71
2018-07-15T00:10:47.408Z,15.61
2018-07-15T00:20:44.992Z,15.51
2018-07-15T00:30:40.557Z,15.42
2018-07-15T00:40:37.126Z,15.42
2018-07-15T00:50:33.928Z,15.32
2018-07-15T01:00:32.378Z,15.32
2018-07-15T01:10:29.241Z,15.32
2018-07-15T01:20:27.489Z,15.22
2018-07-15T01:30:24.001Z,15.02
2018-07-15T01:40:21.688Z,14.73
2018-07-15T01:50:16.462Z,14.73
2018-07-15T02:00:13.718Z,14.73
2018-07-15T02:10:13.318Z,14.63
2018-07-15T02:20:11.327Z,14.63
2018-07-15T02:30:07.681Z,14.44
2018-07-15T02:40:02.773Z,14.14
2018-07-15T02:50:01.040Z,14.24
2018-07-15T02:59:57.591Z,14.05
2018-07-15T03:09:55.866Z,13.95
2018-07-15T03:19:53.313Z,13.95
2018-07-15T03:29:48.004Z,14.05
2018-07-15T03:39:45.605Z,14.14
2018-07-15T03:49:44.584Z,14.14
2018-07-15T03:59:41.286Z,14.24
2018-07-15T04:09:39.641Z,14.44
2018-07-15T04:19:33.536Z,14.63
2018-07-15T04:29:30.981Z,15.02
2018-07-15T04:39:29.279Z,15.32
2018-07-15T04:49:26.469Z,15.71
2018-07-15T04:59:24.768Z,15.90
2018-07-15T05:09:24.465Z,16.59
2018-07-15T05:19:20.723Z,17.18
2018-07-15T05:29:19.627Z,17.76
2018-07-15T05:39:18.138Z,18.06
2018-07-15T05:49:15.928Z,17.96
2018-07-15T05:59:10.761Z,18.06
2018-07-15T06:09:09.881Z,18.45
2018-07-15T06:19:08.155Z,18.74
2018-07-15T06:29:02.398Z,19.23
2018-07-15T06:39:01.077Z,20.01
2018-07-15T06:48:56.028Z,20.31
2018-07-15T06:58:52.108Z,20.60
2018-07-15T07:08:51.200Z,20.99
2018-07-15T07:18:45.894Z,21.38
2018-07-15T07:28:38.157Z,21.58
2018-07-15T07:38:30.745Z,21.87
2018-07-15T07:48:27.880Z,22.26
2018-07-15T07:58:23.363Z,22.46
2018-07-15T08:08:22.562Z,22.26
2018-07-15T08:18:20.400Z,22.26
2018-07-15T08:28:17.579Z,22.26
2018-07-15T08:38:07.374Z,22.65
2018-07-15T08:48:03.899Z,23.05
2018-07-15T08:58:01.843Z,23.24
2018-07-15T09:07:57.772Z,23.34
2018-07-15T09:17:53.854Z,23.14
2018-07-15T09:27:53.582Z,23.93
2018-07-15T09:37:50.060Z,24.51
2018-07-15T09:47:49.156Z,24.61
2018-07-15T09:57:45.765Z,24.32
2018-07-15T10:07:42.967Z,25.19
2018-07-15T10:17:40.094Z,25.68
2018-07-15T10:27:36.323Z,25.68
2018-07-15T10:37:33.376Z,25.78
2018-07-15T10:47:27.266Z,26.37
2018-07-15T10:57:18.325Z,25.78
2018-07-15T11:07:13.860Z,24.90
2018-07-15T11:17:10.602Z,26.27
2018-07-15T11:27:05.821Z,25.39
2018-07-15T11:37:00.531Z,25.29
2018-07-15T11:46:59.670Z,26.47
2018-07-15T11:56:55.984Z,25.78
2018-07-15T12:06:51.836Z,24.90
2018-07-15T12:16:49.795Z,24.12
2018-07-15T12:26:47.373Z,23.63
2018-07-15T12:36:43.450Z,23.83
2018-07-15T12:46:39.173Z,24.71
2018-07-15T12:56:40.720Z,26.66
2018-07-15T13:06:40.970Z,28.91
2018-07-15T13:16:36.909Z,27.84
2018-07-15T13:26:32.912Z,25.88
2018-07-15T13:36:16.465Z,24.51
2018-07-15T13:46:05.579Z,20.41
2018-07-15T13:56:05.110Z,20.60
2018-07-15T14:06:05.441Z,21.77
2018-07-15T14:16:02.767Z,21.48
2018-07-15T14:26:00.813Z,21.19
2018-07-15T14:35:55.975Z,21.09
2018-07-15T14:45:55.332Z,22.16
2018-07-15T14:55:39.347Z,20.80
2018-07-15T15:05:28.665Z,20.80
2018-07-15T15:15:28.212Z,23.05
2018-07-15T15:25:20.727Z,22.36
2018-07-15T15:35:16.833Z,21.28
2018-07-15T15:45:11.847Z,22.46
2018-07-15T15:55:04.162Z,21.68
2018-07-15T16:04:55.120Z,20.89
2018-07-15T16:14:47.942Z,20.89
2018-07-15T16:24:41.023Z,20.99
2018-07-15T16:34:30.571Z,20.70
2018-07-15T16:44:23.317Z,20.70
2018-07-15T16:54:18.830Z,20.99
2018-07-15T17:04:11.085Z,21.09
2018-07-15T17:13:59.438Z,20.70
2018-07-15T17:23:49.618Z,20.50
2018-07-15T17:33:42.680Z,20.31
2018-07-15T17:43:29.963Z,20.40
2018-07-15T17:53:22.450Z,20.31
2018-07-15T18:03:13.461Z,20.11
2018-07-15T18:13:03.848Z,19.62
2018-07-15T18:23:00.416Z,19.23
2018-07-15T18:32:51.841Z,19.03
2018-07-15T18:42:47.948Z,18.74
2018-07-15T18:52:45.578Z,18.64
2018-07-15T19:02:41.112Z,18.35
2018-07-15T19:12:31.684Z,18.25
2018-07-15T19:22:27.113Z,18.15
2018-07-15T19:32:21.694Z,18.25
2018-07-15T19:42:18.654Z,18.15
2018-07-15T19:52:15.009Z,18.06
2018-07-15T20:02:11.455Z,17.86
2018-07-15T20:12:09.187Z,17.76
2018-07-15T20:22:07.118Z,17.47
2018-07-15T20:32:04.694Z,16.98
2018-07-15T20:42:00.316Z,16.78
2018-07-15T20:51:57.045Z,16.59
2018-07-15T21:01:51.603Z,16.39
2018-07-15T21:11:49.495Z,16.49
2018-07-15T21:21:45.735Z,16.20
2018-07-15T21:31:43.153Z,15.90
2018-07-15T21:41:41.241Z,15.61
2018-07-15T21:51:37.231Z,15.42
2018-07-15T22:01:33.046Z,15.42
2018-07-15T22:11:30.721Z,15.12
2018-07-15T22:21:27.998Z,15.32
2018-07-15T22:31:24.605Z,15.42
2018-07-15T22:41:20.276Z,15.32
2018-07-15T22:51:18.523Z,15.02
2018-07-15T23:01:14.792Z,14.83
2018-07-15T23:11:12.406Z,14.63
2018-07-15T23:21:10.949Z,14.54
2018-07-15T23:31:05.235Z,14.44
2018-07-15T23:41:01.806Z,14.44
2018-07-15T23:51:00.233Z,14.44
